createdAt,value
2018-09-22T00:00:38.211Z,19.90
2018-09-22T00:03:07.010Z,19.90
2018-09-22T00:05:35.830Z,19.80
2018-09-22T00:08:04.662Z,19.90
2018-09-22T00:10:33.659Z,19.80
2018-09-22T00:13:02.454Z,19.90
2018-09-22T00:15:31.254Z,19.90
2018-09-22T00:18:00.014Z,19.80
2018-09-22T00:20:28.810Z,19.80
2018-09-22T00:22:57.611Z,19.90
2018-09-22T00:25:26.519Z,19.90
2018-09-22T00:27:55.291Z,19.80
2018-09-22T00:30:24.110Z,19.90
2018-09-22T00:32:52.919Z,19.90
2018-09-22T00:35:21.751Z,19.90
2018-09-22T00:37:50.879Z,19.80
2018-09-22T00:40:19.692Z,19.80
2018-09-22T00:42:48.479Z,19.80
2018-09-22T00:45:17.654Z,19.80
2018-09-22T00:47:46.545Z,19.80
2018-09-22T00:50:15.383Z,19.80
2018-09-22T00:52:44.182Z,19.80
2018-09-22T00:55:12.969Z,19.90
2018-09-22T00:57:41.831Z,19.80
2018-09-22T01:00:12.084Z,19.80
2018-09-22T01:02:41.239Z,19.80
2018-09-22T01:05:10.061Z,19.80
2018-09-22T01:07:38.933Z,19.80
2018-09-22T01:10:07.762Z,19.80
2018-09-22T01:12:36.609Z,19.80
2018-09-22T01:15:05.953Z,19.80
2018-09-22T01:17:34.811Z,19.80
2018-09-22T01:20:03.772Z,19.80
2018-09-22T01:22:32.579Z,19.80
2018-09-22T01:25:01.383Z,19.80
2018-09-22T01:27:30.246Z,19.80
2018-09-22T01:29:59.022Z,19.90
2018-09-22T01:32:27.921Z,19.80
2018-09-22T01:34:56.732Z,19.90
2018-09-22T01:37:25.643Z,19.80
2018-09-22T01:39:54.468Z,19.80
2018-09-22T01:42:23.251Z,19.80
2018-09-22T01:44:52.071Z,19.90
2018-09-22T01:47:20.968Z,19.90
2018-09-22T01:49:49.859Z,19.90
2018-09-22T01:52:18.718Z,19.90
2018-09-22T01:54:47.501Z,19.90
2018-09-22T01:57:16.314Z,20.00
2018-09-22T01:59:45.110Z,20.00
2018-09-22T02:02:13.921Z,20.00
2018-09-22T02:04:42.752Z,20.00
2018-09-22T02:07:11.596Z,20.00
2018-09-22T02:09:40.399Z,19.90
2018-09-22T02:12:09.179Z,19.90
2018-09-22T02:14:37.966Z,20.00
2018-09-22T02:17:06.841Z,19.90
2018-09-22T02:19:35.659Z,20.00
2018-09-22T02:22:04.454Z,20.00
2018-09-22T02:24:33.235Z,20.00
2018-09-22T02:27:02.111Z,20.00
2018-09-22T02:29:30.914Z,20.00
2018-09-22T02:31:59.725Z,19.90
2018-09-22T02:34:28.603Z,19.80
2018-09-22T02:36:57.694Z,19.80
2018-09-22T02:39:26.474Z,19.80
2018-09-22T02:41:55.331Z,19.90
2018-09-22T02:44:24.228Z,19.90
2018-09-22T02:46:53.103Z,19.90
2018-09-22T02:49:21.886Z,19.90
2018-09-22T02:51:50.700Z,19.90
2018-09-22T02:54:19.611Z,19.80
2018-09-22T02:56:48.499Z,19.80
2018-09-22T02:59:21.334Z,19.80
2018-09-22T03:01:53.090Z,19.70
2018-09-22T03:04:21.894Z,19.70
2018-09-22T03:06:50.865Z,19.70
2018-09-22T03:09:19.626Z,19.70
2018-09-22T03:11:48.438Z,19.60
2018-09-22T03:14:17.235Z,19.60
2018-09-22T03:16:46.023Z,19.60
2018-09-22T03:19:14.811Z,19.50
2018-09-22T03:21:43.630Z,19.40
2018-09-22T03:24:12.426Z,19.30
2018-09-22T03:26:41.298Z,19.10
2018-09-22T03:29:10.351Z,19.00
2018-09-22T03:31:39.151Z,18.80
2018-09-22T03:34:07.971Z,18.70
2018-09-22T03:36:36.890Z,18.50
2018-09-22T03:39:08.236Z,18.20
2018-09-22T03:41:37.166Z,18.00
2018-09-22T03:44:06.938Z,17.90
2018-09-22T03:46:35.830Z,17.70
2018-09-22T03:49:04.669Z,17.60
2018-09-22T03:51:33.487Z,17.40
2018-09-22T03:54:02.301Z,17.30
2018-09-22T03:56:31.192Z,17.10
2018-09-22T03:59:00.005Z,16.80
2018-09-22T04:01:28.852Z,16.70
2018-09-22T04:03:58.151Z,16.40
2018-09-22T04:06:27.031Z,16.20
2018-09-22T04:08:55.867Z,16.00
2018-09-22T04:11:24.669Z,15.90
2018-09-22T04:13:53.487Z,15.80
2018-09-22T04:16:22.379Z,15.80
2018-09-22T04:18:51.162Z,15.70
2018-09-22T04:21:19.974Z,15.60
2018-09-22T04:23:48.815Z,15.50
2018-09-22T04:26:17.655Z,15.50
2018-09-22T04:28:46.470Z,15.60
2018-09-22T04:31:15.270Z,15.50
2018-09-22T04:33:44.079Z,15.50
2018-09-22T04:36:12.894Z,15.40
2018-09-22T04:38:41.712Z,15.30
2018-09-22T04:41:10.595Z,15.30
2018-09-22T04:43:39.414Z,15.30
2018-09-22T04:46:08.498Z,15.30
2018-09-22T04:48:37.294Z,15.30
2018-09-22T04:51:06.131Z,15.30
2018-09-22T04:53:34.950Z,15.20
2018-09-22T04:56:03.823Z,15.20
2018-09-22T04:58:32.625Z,15.20
2018-09-22T05:01:01.407Z,15.10
2018-09-22T05:03:30.186Z,15.10
2018-09-22T05:05:59.066Z,15.00
2018-09-22T05:08:27.871Z,14.90
2018-09-22T05:10:56.662Z,14.80
2018-09-22T05:13:25.515Z,14.80
2018-09-22T05:15:54.475Z,14.90
2018-09-22T05:18:23.292Z,14.80
2018-09-22T05:20:52.220Z,15.00
2018-09-22T05:23:21.019Z,15.00
2018-09-22T05:25:49.891Z,15.10
2018-09-22T05:28:18.899Z,15.20
2018-09-22T05:30:47.715Z,15.30
2018-09-22T05:33:16.631Z,15.20
2018-09-22T05:35:45.455Z,15.20
2018-09-22T05:38:14.313Z,15.00
2018-09-22T05:40:43.222Z,14.90
2018-09-22T05:43:12.809Z,15.00
2018-09-22T05:45:42.878Z,15.00
2018-09-22T05:48:11.685Z,14.60
2018-09-22T05:50:40.493Z,14.60
2018-09-22T05:53:10.029Z,14.60
2018-09-22T05:55:38.964Z,14.80
2018-09-22T05:58:07.825Z,14.90
2018-09-22T06:00:38.288Z,14.90
2018-09-22T06:03:08.807Z,14.80
2018-09-22T06:05:38.023Z,14.80
2018-09-22T06:08:07.378Z,14.80
2018-09-22T06:10:36.636Z,14.80
2018-09-22T06:13:05.880Z,14.90
2018-09-22T06:15:34.760Z,14.90
2018-09-22T06:18:03.732Z,14.90
2018-09-22T06:20:32.795Z,15.10
2018-09-22T06:23:01.866Z,15.20
2018-09-22T06:25:30.869Z,15.30
2018-09-22T06:27:59.786Z,15.10
2018-09-22T06:30:33.869Z,15.20
2018-09-22T06:33:03.643Z,15.30
2018-09-22T06:35:32.635Z,15.30
2018-09-22T06:38:01.528Z,15.40
2018-09-22T06:40:30.541Z,15.40
2018-09-22T06:42:59.475Z,15.40
2018-09-22T06:45:28.561Z,15.40
2018-09-22T06:47:57.969Z,15.50
2018-09-22T06:50:26.990Z,15.50
2018-09-22T06:52:56.103Z,15.40
2018-09-22T06:55:25.268Z,15.40
2018-09-22T06:57:54.396Z,15.40
2018-09-22T07:00:31.223Z,15.50
2018-09-22T07:03:00.589Z,15.40
2018-09-22T07:05:29.699Z,15.50
2018-09-22T07:07:58.745Z,15.50
2018-09-22T07:10:27.627Z,15.50
2018-09-22T07:12:57.435Z,15.30
2018-09-22T07:15:26.514Z,15.40
2018-09-22T07:17:55.752Z,15.30
2018-09-22T07:20:24.860Z,15.20
2018-09-22T07:22:59.374Z,15.30
2018-09-22T07:25:28.616Z,15.40
2018-09-22T07:27:57.631Z,15.50
2018-09-22T07:30:26.620Z,15.50
2018-09-22T07:32:55.473Z,15.50
2018-09-22T07:35:25.031Z,15.50
2018-09-22T07:37:54.268Z,15.50
2018-09-22T07:40:23.932Z,15.40
2018-09-22T07:42:53.340Z,15.50
2018-09-22T07:45:23.008Z,15.40
2018-09-22T07:47:52.067Z,15.40
2018-09-22T07:50:21.448Z,15.30
2018-09-22T07:52:50.458Z,15.40
2018-09-22T07:55:19.395Z,15.50
2018-09-22T07:57:48.481Z,15.50
2018-09-22T08:00:19.469Z,15.20
2018-09-22T08:02:48.484Z,15.00
2018-09-22T08:05:17.383Z,14.90
2018-09-22T08:07:46.493Z,14.80
2018-09-22T08:10:15.799Z,14.80
2018-09-22T08:12:44.940Z,14.90
2018-09-22T08:15:13.877Z,14.90
2018-09-22T08:17:43.008Z,14.70
2018-09-22T08:20:12.804Z,14.80
2018-09-22T08:22:42.674Z,15.00
2018-09-22T08:25:12.076Z,15.10
2018-09-22T08:27:41.418Z,15.10
2018-09-22T08:30:11.528Z,15.10
2018-09-22T08:32:40.607Z,15.30
2018-09-22T08:35:10.331Z,15.30
2018-09-22T08:37:39.379Z,15.20
2018-09-22T08:40:08.888Z,15.30
2018-09-22T08:42:37.847Z,15.30
2018-09-22T08:45:07.108Z,15.20
2018-09-22T08:47:37.120Z,15.30
2018-09-22T08:50:06.984Z,15.30
2018-09-22T08:52:36.574Z,15.20
2018-09-22T08:55:05.876Z,15.30
2018-09-22T08:57:34.941Z,15.30
2018-09-22T09:00:04.331Z,15.30
2018-09-22T09:02:33.374Z,15.20
2018-09-22T09:05:02.893Z,15.00
2018-09-22T09:07:31.964Z,15.00
2018-09-22T09:10:01.342Z,15.30
2018-09-22T09:12:30.402Z,15.30
2018-09-22T09:14:59.811Z,15.40
2018-09-22T09:17:28.948Z,15.40
2018-09-22T09:19:57.875Z,15.50
2018-09-22T09:22:27.217Z,15.50
2018-09-22T09:24:56.630Z,15.50
2018-09-22T09:27:25.974Z,15.40
2018-09-22T09:29:54.882Z,15.30
2018-09-22T09:32:23.957Z,15.30
2018-09-22T09:34:53.222Z,15.40
2018-09-22T09:37:22.428Z,15.00
2018-09-22T09:39:51.331Z,14.90
2018-09-22T09:42:21.235Z,14.70
2018-09-22T09:44:50.408Z,14.70
2018-09-22T09:47:19.705Z,14.90
2018-09-22T09:49:52.017Z,15.00
2018-09-22T09:52:21.427Z,15.00
2018-09-22T09:54:51.208Z,15.10
2018-09-22T09:57:20.453Z,15.20
2018-09-22T09:59:49.895Z,15.30
2018-09-22T10:02:19.264Z,15.40
2018-09-22T10:04:48.885Z,15.30
2018-09-22T10:07:17.883Z,15.20
2018-09-22T10:09:47.718Z,14.90
2018-09-22T10:12:17.287Z,14.70
2018-09-22T10:14:46.280Z,14.80
2018-09-22T10:17:15.365Z,15.00
2018-09-22T10:19:45.100Z,15.00
2018-09-22T10:22:14.753Z,15.10
2018-09-22T10:24:44.420Z,15.20
2018-09-22T10:27:13.647Z,15.30
2018-09-22T10:29:43.142Z,15.20
2018-09-22T10:32:12.540Z,14.70
2018-09-22T10:34:42.039Z,14.60
2018-09-22T10:37:11.410Z,14.40
2018-09-22T10:39:41.638Z,14.50
2018-09-22T10:42:11.595Z,14.60
2018-09-22T10:44:40.989Z,14.70
2018-09-22T10:47:11.559Z,14.90
2018-09-22T10:49:40.781Z,14.70
2018-09-22T10:52:09.809Z,14.90
2018-09-22T10:54:39.070Z,14.90
2018-09-22T10:57:08.065Z,14.80
2018-09-22T10:59:36.907Z,14.90
2018-09-22T11:02:06.919Z,14.70
2018-09-22T11:04:35.807Z,14.70
2018-09-22T11:07:04.932Z,14.20
2018-09-22T11:09:33.850Z,14.50
2018-09-22T11:12:03.774Z,14.70
2018-09-22T11:14:32.643Z,14.90
2018-09-22T11:17:01.531Z,15.00
2018-09-22T11:19:33.248Z,14.70
2018-09-22T11:22:02.093Z,14.70
2018-09-22T11:24:30.917Z,14.60
2018-09-22T11:26:59.971Z,14.70
2018-09-22T11:29:28.914Z,14.70
2018-09-22T11:31:57.721Z,14.60
2018-09-22T11:34:26.583Z,14.60
2018-09-22T11:36:55.533Z,14.40
2018-09-22T11:39:24.569Z,14.40
2018-09-22T11:41:53.399Z,14.60
2018-09-22T11:44:22.251Z,14.60
2018-09-22T11:46:51.187Z,14.60
2018-09-22T11:49:19.993Z,14.60
2018-09-22T11:51:48.851Z,14.60
2018-09-22T11:54:17.735Z,14.70
2018-09-22T11:56:46.663Z,14.60
2018-09-22T11:59:16.435Z,14.70
2018-09-22T12:01:47.431Z,14.50
2018-09-22T12:04:16.844Z,14.30
2018-09-22T12:06:46.079Z,14.20
2018-09-22T12:09:15.032Z,14.30
2018-09-22T12:11:43.987Z,14.10
2018-09-22T12:14:12.905Z,14.30
2018-09-22T12:16:41.836Z,14.50
2018-09-22T12:19:10.678Z,14.70
2018-09-22T12:21:39.509Z,14.70
2018-09-22T12:24:08.385Z,14.70
2018-09-22T12:26:37.287Z,14.60
2018-09-22T12:29:06.646Z,14.30
2018-09-22T12:31:35.547Z,14.10
2018-09-22T12:34:04.490Z,14.10
2018-09-22T12:36:33.395Z,14.20
2018-09-22T12:39:02.397Z,14.50
2018-09-22T12:41:31.257Z,14.90
2018-09-22T12:44:00.217Z,15.00
2018-09-22T12:46:29.199Z,15.20
2018-09-22T12:48:58.032Z,15.30
2018-09-22T12:51:26.908Z,15.50
2018-09-22T12:53:55.763Z,15.50
2018-09-22T12:56:24.730Z,15.40
2018-09-22T12:58:53.646Z,15.30
2018-09-22T13:01:22.490Z,15.40
2018-09-22T13:03:51.411Z,15.40
2018-09-22T13:06:20.296Z,15.50
2018-09-22T13:08:49.399Z,15.50
2018-09-22T13:11:18.626Z,15.50
2018-09-22T13:13:47.503Z,15.50
2018-09-22T13:16:16.363Z,15.30
2018-09-22T13:18:45.223Z,15.30
2018-09-22T13:21:14.071Z,15.30
2018-09-22T13:23:42.882Z,15.30
2018-09-22T13:26:11.792Z,15.10
2018-09-22T13:28:40.682Z,15.20
2018-09-22T13:31:09.574Z,15.10
2018-09-22T13:33:39.092Z,14.90
2018-09-22T13:36:08.016Z,14.90
2018-09-22T13:38:37.057Z,14.90
2018-09-22T13:41:06.247Z,14.80
2018-09-22T13:43:35.116Z,14.80
2018-09-22T13:46:04.039Z,14.90
2018-09-22T13:48:32.888Z,15.20
2018-09-22T13:51:01.747Z,15.30
2018-09-22T13:53:30.600Z,15.30
2018-09-22T13:55:59.555Z,15.10
2018-09-22T13:58:28.459Z,14.90
2018-09-22T14:00:57.283Z,14.70
2018-09-22T14:03:26.126Z,14.70
2018-09-22T14:05:55.501Z,14.70
2018-09-22T14:08:24.683Z,14.60
2018-09-22T14:10:54.068Z,14.70
2018-09-22T14:13:23.212Z,14.50
2018-09-22T14:15:52.529Z,14.40
2018-09-22T14:18:21.448Z,14.60
2018-09-22T14:20:50.843Z,14.70
2018-09-22T14:23:19.721Z,14.50
2018-09-22T14:25:48.731Z,14.50
2018-09-22T14:28:17.592Z,14.50
2018-09-22T14:30:46.450Z,14.60
2018-09-22T14:33:15.292Z,14.30
2018-09-22T14:35:44.139Z,14.50
2018-09-22T14:38:13.461Z,14.60
2018-09-22T14:40:42.538Z,14.60
2018-09-22T14:43:11.959Z,14.40
2018-09-22T14:45:40.876Z,14.40
2018-09-22T14:48:09.807Z,14.30
2018-09-22T14:50:38.654Z,14.40
2018-09-22T14:53:08.019Z,14.60
2018-09-22T14:55:36.915Z,14.50
2018-09-22T14:58:06.946Z,14.50
2018-09-22T15:00:36.587Z,14.50
2018-09-22T15:03:05.659Z,14.60
2018-09-22T15:05:34.527Z,14.50
2018-09-22T15:08:03.375Z,14.50
2018-09-22T15:10:32.679Z,14.40
2018-09-22T15:13:01.611Z,14.50
2018-09-22T15:15:30.559Z,14.60
2018-09-22T15:18:00.191Z,14.70
2018-09-22T15:20:29.159Z,14.70
2018-09-22T15:22:58.362Z,14.90
2018-09-22T15:25:27.246Z,15.10
2018-09-22T15:27:56.220Z,15.20
2018-09-22T15:30:25.331Z,15.20
2018-09-22T15:32:54.262Z,15.20
2018-09-22T15:35:23.102Z,15.20
2018-09-22T15:37:52.605Z,15.10
2018-09-22T15:40:21.702Z,14.80
2018-09-22T15:42:50.696Z,14.80
2018-09-22T15:45:20.289Z,15.00
2018-09-22T15:47:49.158Z,15.00
2018-09-22T15:50:18.386Z,14.90
2018-09-22T15:52:47.235Z,14.70
2018-09-22T15:55:16.844Z,14.60
2018-09-22T15:57:45.992Z,14.50
2018-09-22T16:00:16.479Z,14.60
2018-09-22T16:02:48.511Z,14.60
2018-09-22T16:05:17.876Z,14.70
2018-09-22T16:07:47.048Z,14.90
2018-09-22T16:10:16.416Z,15.00
2018-09-22T16:12:45.607Z,15.10
2018-09-22T16:15:14.497Z,15.10
2018-09-22T16:17:46.767Z,15.20
2018-09-22T16:20:15.695Z,15.00
2018-09-22T16:22:44.700Z,14.90
2018-09-22T16:25:13.951Z,14.80
2018-09-22T16:27:43.068Z,14.80
2018-09-22T16:30:12.381Z,14.80
2018-09-22T16:32:41.307Z,14.80
2018-09-22T16:35:10.248Z,14.70
2018-09-22T16:37:39.237Z,14.80
2018-09-22T16:40:08.143Z,14.80
2018-09-22T16:42:36.951Z,14.60
2018-09-22T16:45:05.847Z,14.50
2018-09-22T16:47:34.787Z,14.60
2018-09-22T16:50:03.718Z,14.90
2018-09-22T16:52:32.550Z,15.10
2018-09-22T16:55:01.418Z,15.30
2018-09-22T16:57:30.270Z,15.50
2018-09-22T16:59:59.092Z,15.50
2018-09-22T17:02:27.902Z,15.50
2018-09-22T17:04:56.723Z,15.50
2018-09-22T17:07:25.631Z,15.60
2018-09-22T17:09:54.482Z,15.70
2018-09-22T17:12:23.312Z,15.70
2018-09-22T17:14:52.230Z,15.80
2018-09-22T17:17:21.079Z,15.70
2018-09-22T17:19:49.915Z,15.70
2018-09-22T17:22:18.734Z,15.70
2018-09-22T17:24:47.560Z,15.70
2018-09-22T17:27:16.468Z,15.80
2018-09-22T17:29:45.319Z,15.80
2018-09-22T17:32:14.227Z,15.80
2018-09-22T17:34:43.063Z,15.80
2018-09-22T17:37:12.058Z,15.80
2018-09-22T17:39:42.010Z,15.80
2018-09-22T17:42:11.814Z,15.70
2018-09-22T17:44:40.963Z,15.80
2018-09-22T17:47:10.583Z,15.70
2018-09-22T17:49:40.209Z,15.70
2018-09-22T17:52:09.050Z,15.60
2018-09-22T17:54:38.823Z,15.80
2018-09-22T17:57:07.886Z,15.90
2018-09-22T17:59:36.763Z,15.90
2018-09-22T18:02:06.103Z,15.80
2018-09-22T18:04:34.956Z,15.60
2018-09-22T18:07:03.823Z,15.70
2018-09-22T18:09:32.719Z,15.70
2018-09-22T18:12:02.024Z,15.70
2018-09-22T18:14:31.635Z,15.70
2018-09-22T18:17:00.520Z,15.80
2018-09-22T18:19:29.423Z,15.80
2018-09-22T18:21:58.325Z,15.70
2018-09-22T18:24:27.140Z,15.70
2018-09-22T18:26:56.069Z,15.80
2018-09-22T18:29:24.930Z,15.90
2018-09-22T18:31:53.800Z,15.80
2018-09-22T18:34:23.217Z,15.90
2018-09-22T18:36:52.139Z,15.70
2018-09-22T18:39:20.959Z,15.60
2018-09-22T18:41:49.807Z,15.70
2018-09-22T18:44:18.664Z,15.70
2018-09-22T18:46:47.784Z,15.80
2018-09-22T18:49:17.122Z,15.80
2018-09-22T18:51:47.056Z,15.80
2018-09-22T18:54:16.440Z,15.80
2018-09-22T18:56:46.008Z,15.90
2018-09-22T18:59:15.899Z,16.00
2018-09-22T19:01:46.371Z,16.00
2018-09-22T19:04:15.780Z,16.00
2018-09-22T19:09:24.232Z,15.80
2018-09-22T19:11:53.440Z,15.80
2018-09-22T19:14:32.650Z,15.60
2018-09-22T19:17:05.979Z,15.50
2018-09-22T19:21:43.246Z,15.60
2018-09-22T19:24:21.173Z,15.70
2018-09-22T19:26:55.668Z,15.60
2018-09-22T19:29:30.514Z,15.60
2018-09-22T19:32:03.089Z,15.70
2018-09-22T19:34:52.308Z,15.80
2018-09-22T19:37:25.779Z,15.70
2018-09-22T19:39:58.521Z,15.60
2018-09-22T19:42:40.978Z,15.70
2018-09-22T19:45:16.367Z,15.70
2018-09-22T19:47:57.519Z,15.70
2018-09-22T19:50:32.091Z,15.70
2018-09-22T19:53:01.406Z,15.80
2018-09-22T19:55:30.420Z,15.90
2018-09-22T19:57:59.388Z,15.90
2018-09-22T20:00:29.303Z,15.80
2018-09-22T20:02:58.115Z,15.80
2018-09-22T20:05:27.840Z,15.70
2018-09-22T20:07:56.788Z,15.60
2018-09-22T20:10:25.803Z,15.50
2018-09-22T20:12:54.655Z,15.50
2018-09-22T20:15:23.512Z,15.50
2018-09-22T20:17:52.433Z,15.50
2018-09-22T20:20:22.196Z,15.60
2018-09-22T20:22:51.144Z,15.80
2018-09-22T20:25:20.619Z,15.90
2018-09-22T20:27:50.103Z,15.80
2018-09-22T20:30:18.953Z,15.80
2018-09-22T20:32:47.784Z,15.90
2018-09-22T20:35:16.662Z,15.90
2018-09-22T20:37:45.585Z,15.90
2018-09-22T20:40:14.447Z,15.90
2018-09-22T20:42:43.280Z,15.90
2018-09-22T20:45:12.107Z,15.90
2018-09-22T20:47:41.055Z,15.80
2018-09-22T20:50:09.897Z,15.70
2018-09-22T20:52:38.888Z,15.80
2018-09-22T20:55:07.796Z,15.80
2018-09-22T20:57:36.720Z,15.60
2018-09-22T21:00:07.262Z,15.60
2018-09-22T21:02:36.104Z,15.60
2018-09-22T21:05:04.999Z,15.70
2018-09-22T21:07:34.160Z,15.70
2018-09-22T21:10:03.032Z,15.60
2018-09-22T21:12:31.920Z,15.40
2018-09-22T21:15:00.790Z,15.50
2018-09-22T21:17:29.703Z,15.60
2018-09-22T21:19:58.548Z,15.50
2018-09-22T21:22:27.395Z,15.40
2018-09-22T21:24:56.218Z,15.40
2018-09-22T21:27:25.148Z,15.50
2018-09-22T21:29:53.975Z,15.60
2018-09-22T21:32:22.814Z,15.30
2018-09-22T21:34:51.752Z,15.10
2018-09-22T21:37:20.603Z,15.30
2018-09-22T21:39:50.219Z,15.40
2018-09-22T21:42:19.207Z,15.50
2018-09-22T21:44:48.123Z,15.60
2018-09-22T21:47:17.039Z,15.60
2018-09-22T21:49:45.847Z,15.60
2018-09-22T21:52:14.667Z,15.60
2018-09-22T21:54:43.528Z,15.70
2018-09-22T21:57:12.343Z,15.60
2018-09-22T21:59:41.275Z,15.50
2018-09-22T22:02:10.168Z,15.40
2018-09-22T22:04:39.070Z,15.40
2018-09-22T22:07:08.187Z,15.40
2018-09-22T22:09:36.995Z,15.50
2018-09-22T22:12:05.944Z,15.60
2018-09-22T22:14:34.806Z,15.70
2018-09-22T22:17:03.682Z,15.70
2018-09-22T22:19:32.497Z,15.60
2018-09-22T22:22:01.314Z,15.50
2018-09-22T22:24:30.159Z,15.50
2018-09-22T22:26:59.147Z,15.60
2018-09-22T22:29:27.954Z,15.70
2018-09-22T22:31:56.790Z,15.60
2018-09-22T22:34:25.624Z,15.50
2018-09-22T22:36:54.535Z,15.60
2018-09-22T22:39:23.370Z,15.70
2018-09-22T22:41:52.206Z,15.70
2018-09-22T22:44:21.039Z,15.70
2018-09-22T22:46:49.935Z,15.60
2018-09-22T22:49:18.755Z,15.70
2018-09-22T22:51:47.599Z,15.70
2018-09-22T22:54:16.436Z,15.60
2018-09-22T22:56:45.294Z,15.50
2018-09-22T22:59:15.992Z,15.40
2018-09-22T23:01:44.927Z,15.40
2018-09-22T23:04:13.773Z,15.40
2018-09-22T23:06:42.759Z,15.40
2018-09-22T23:09:11.574Z,15.50
2018-09-22T23:11:40.407Z,15.50
2018-09-22T23:14:09.286Z,15.70
2018-09-22T23:16:38.194Z,15.70
2018-09-22T23:19:07.059Z,15.70
2018-09-22T23:21:36.034Z,15.80
2018-09-22T23:24:04.902Z,15.80
2018-09-22T23:26:33.860Z,15.80
2018-09-22T23:29:02.715Z,15.80
2018-09-22T23:31:31.563Z,15.70
2018-09-22T23:34:00.387Z,15.60
2018-09-22T23:36:29.215Z,15.50
2018-09-22T23:38:58.147Z,15.60
2018-09-22T23:41:26.997Z,15.70
2018-09-22T23:43:55.852Z,15.70
2018-09-22T23:46:24.769Z,15.70
2018-09-22T23:48:53.620Z,15.60
2018-09-22T23:51:22.443Z,15.40
2018-09-22T23:53:51.267Z,15.60
2018-09-22T23:56:20.161Z,15.70
2018-09-22T23:58:49.018Z,15.60
